createdAt,value
2022-08-09T00:02:27.761Z,4.68
2022-08-09T00:05:03.390Z,5.20
2022-08-09T00:07:44.891Z,4.50
2022-08-09T00:10:21.141Z,6.05
2022-08-09T00:12:52.372Z,5.05
2022-08-09T00:15:26.780Z,7.97
2022-08-09T00:18:05.315Z,9.05
2022-08-09T00:20:37.508Z,7.47
2022-08-09T00:23:57.682Z,6.30
2022-08-09T00:25:56.973Z,7.22
2022-08-09T00:28:27.231Z,7.20
2022-08-09T00:33:20.572Z,4.70
2022-08-09T00:36:07.384Z,6.97
2022-08-09T00:38:36.036Z,4.68
2022-08-09T00:41:05.217Z,5.95
2022-08-09T00:44:13.137Z,4.80
2022-08-09T00:46:55.547Z,4.68
2022-08-09T00:49:10.992Z,7.25
2022-08-09T00:51:54.193Z,9.10
2022-08-09T00:54:21.798Z,7.30
2022-08-09T00:56:57.821Z,6.85
2022-08-09T00:59:41.102Z,9.88
2022-08-09T01:02:12.538Z,5.18
2022-08-09T01:05:22.011Z,5.30
2022-08-09T01:08:05.059Z,5.95
2022-08-09T01:10:39.289Z,5.85
2022-08-09T01:13:22.700Z,8.75
2022-08-09T01:15:54.664Z,9.48
2022-08-09T01:18:29.806Z,5.03
2022-08-09T01:21:21.570Z,7.72
2022-08-09T01:24:09.673Z,6.82
2022-08-09T01:26:46.284Z,6.43
2022-08-09T01:29:28.993Z,8.15
2022-08-09T01:32:30.768Z,6.80
2022-08-09T01:35:00.428Z,5.97
2022-08-09T01:38:08.454Z,5.47
2022-08-09T01:40:33.821Z,5.95
2022-08-09T01:43:05.384Z,5.87
2022-08-09T01:45:44.514Z,6.18
2022-08-09T01:48:12.693Z,5.90
2022-08-09T01:50:48.420Z,5.93
2022-08-09T01:53:19.212Z,5.78
2022-08-09T01:55:47.732Z,6.75
2022-08-09T01:58:15.970Z,8.38
2022-08-09T02:00:46.056Z,6.85
2022-08-09T02:06:03.340Z,5.60
2022-08-09T02:08:40.946Z,6.13
2022-08-09T02:11:21.291Z,5.53
2022-08-09T02:13:55.350Z,7.80
2022-08-09T02:16:53.277Z,4.53
2022-08-09T02:19:23.252Z,9.00
2022-08-09T02:21:55.698Z,7.03
2022-08-09T02:24:26.868Z,7.07
2022-08-09T02:26:58.815Z,5.38
2022-08-09T02:29:29.182Z,6.78
2022-08-09T02:32:01.838Z,6.78
2022-08-09T02:34:41.728Z,6.80
2022-08-09T02:37:24.165Z,6.03
2022-08-09T02:40:24.860Z,5.53
2022-08-09T02:43:00.365Z,7.57
2022-08-09T02:45:32.923Z,7.47
2022-08-09T02:48:03.991Z,7.78
2022-08-09T02:50:36.583Z,10.68
2022-08-09T02:53:09.435Z,4.68
2022-08-09T02:55:57.699Z,6.28
2022-08-09T02:58:36.205Z,6.25
2022-08-09T03:01:07.871Z,6.50
2022-08-09T03:04:16.767Z,5.93
2022-08-09T03:06:27.354Z,6.38
2022-08-09T03:08:55.444Z,7.28
2022-08-09T03:12:05.281Z,6.25
2022-08-09T03:14:11.470Z,5.97
2022-08-09T03:16:45.167Z,6.50
2022-08-09T03:19:52.327Z,7.20
2022-08-09T03:22:04.508Z,4.93
2022-08-09T03:24:51.870Z,9.30
2022-08-09T03:27:21.671Z,7.10
2022-08-09T03:29:58.075Z,7.45
2022-08-09T03:32:31.458Z,6.97
2022-08-09T03:35:00.142Z,5.93
2022-08-09T03:37:55.693Z,6.38
2022-08-09T03:40:18.118Z,5.97
2022-08-09T03:42:45.677Z,6.10
2022-08-09T03:45:13.427Z,7.18
2022-08-09T03:47:42.069Z,6.68
2022-08-09T03:50:14.202Z,5.88
2022-08-09T03:52:56.279Z,8.18
2022-08-09T03:55:24.594Z,6.35
2022-08-09T03:58:03.193Z,7.05
2022-08-09T04:00:33.308Z,6.43
2022-08-09T04:03:00.713Z,5.35
2022-08-09T04:05:28.236Z,6.22
2022-08-09T04:07:56.847Z,7.97
2022-08-09T04:10:29.658Z,6.45
2022-08-09T04:13:01.259Z,6.90
2022-08-09T04:15:52.188Z,8.05
2022-08-09T04:18:21.426Z,8.02
2022-08-09T04:20:48.966Z,7.07
2022-08-09T04:23:17.382Z,6.07
2022-08-09T04:25:51.842Z,6.03
2022-08-09T04:28:33.830Z,10.05
2022-08-09T04:31:05.867Z,6.63
2022-08-09T04:33:51.930Z,7.45
2022-08-09T04:36:20.970Z,7.18
2022-08-09T04:38:50.158Z,7.45
2022-08-09T04:41:16.650Z,9.07
2022-08-09T04:43:53.898Z,9.27
2022-08-09T04:46:38.025Z,8.82
2022-08-09T04:49:17.755Z,9.15
2022-08-09T04:51:56.909Z,8.27
2022-08-09T04:54:23.898Z,5.95
2022-08-09T04:56:50.468Z,10.82
2022-08-09T04:59:17.084Z,12.25
2022-08-09T05:01:47.692Z,8.57
2022-08-09T05:04:14.462Z,9.60
2022-08-09T05:06:41.075Z,8.40
2022-08-09T05:09:10.845Z,8.67
2022-08-09T05:11:40.224Z,7.55
2022-08-09T05:14:10.050Z,6.45
2022-08-09T05:16:43.670Z,10.80
2022-08-09T05:19:31.701Z,9.15
2022-08-09T05:22:33.198Z,8.50
2022-08-09T05:25:01.094Z,9.43
2022-08-09T05:27:30.295Z,12.52
2022-08-09T05:29:57.912Z,11.00
2022-08-09T05:32:26.302Z,10.73
2022-08-09T05:34:56.735Z,10.38
2022-08-09T05:37:23.799Z,12.20
2022-08-09T05:39:52.337Z,9.35
2022-08-09T05:42:21.869Z,8.52
2022-08-09T05:44:55.656Z,10.20
2022-08-09T05:47:24.513Z,9.52
2022-08-09T05:50:30.398Z,15.80
2022-08-09T05:52:42.038Z,9.25
2022-08-09T05:55:18.037Z,9.82
2022-08-09T05:57:55.196Z,9.55
2022-08-09T06:00:28.797Z,9.55
2022-08-09T06:03:02.405Z,9.32
2022-08-09T06:05:57.073Z,11.20
2022-08-09T06:08:19.541Z,8.45
2022-08-09T06:10:52.529Z,11.15
2022-08-09T06:13:20.833Z,14.40
2022-08-09T06:15:51.129Z,11.45
2022-08-09T06:18:20.459Z,10.80
2022-08-09T06:20:54.658Z,11.35
2022-08-09T06:23:57.688Z,11.75
2022-08-09T06:26:12.685Z,11.23
2022-08-09T06:28:39.297Z,11.63
2022-08-09T06:31:10.202Z,11.68
2022-08-09T06:33:40.433Z,12.40
2022-08-09T06:36:08.180Z,13.25
2022-08-09T06:38:37.393Z,12.30
2022-08-09T06:41:18.778Z,11.73
2022-08-09T06:43:46.894Z,9.23
2022-08-09T06:46:38.975Z,10.15
2022-08-09T06:49:00.652Z,12.15
2022-08-09T06:51:27.963Z,12.60
2022-08-09T06:53:55.016Z,11.50
2022-08-09T06:56:21.801Z,10.93
2022-08-09T07:00:51.716Z,11.18
2022-08-09T07:01:54.560Z,11.70
2022-08-09T07:04:27.153Z,12.60
2022-08-09T07:07:00.329Z,10.70
2022-08-09T07:09:53.437Z,10.63
2022-08-09T07:12:18.268Z,10.57
2022-08-09T07:14:51.159Z,12.02
2022-08-09T07:17:21.795Z,12.20
2022-08-09T07:19:50.788Z,12.73
2022-08-09T07:22:27.276Z,11.30
2022-08-09T07:25:01.307Z,10.98
2022-08-09T07:27:34.397Z,12.77
2022-08-09T07:30:13.294Z,14.20
2022-08-09T07:32:41.665Z,16.35
2022-08-09T07:35:12.134Z,10.05
2022-08-09T07:37:45.768Z,10.85
2022-08-09T07:40:20.734Z,9.35
2022-08-09T07:42:59.059Z,14.63
2022-08-09T07:45:37.007Z,11.65
2022-08-09T07:48:05.550Z,10.82
2022-08-09T07:50:36.713Z,8.13
2022-08-09T07:53:04.827Z,7.65
2022-08-09T07:55:41.644Z,6.93
2022-08-09T07:58:18.965Z,9.68
2022-08-09T08:00:59.232Z,8.88
2022-08-09T08:03:33.561Z,8.65
2022-08-09T08:06:04.539Z,7.75
2022-08-09T08:09:02.747Z,7.93
2022-08-09T08:12:10.047Z,6.40
2022-08-09T08:14:06.474Z,13.82
2022-08-09T08:16:34.625Z,7.68
2022-08-09T08:19:02.852Z,6.70
2022-08-09T08:21:30.798Z,4.88
2022-08-09T08:23:57.551Z,5.30
2022-08-09T08:26:54.605Z,4.88
2022-08-09T08:29:20.148Z,4.25
2022-08-09T08:32:03.648Z,4.30
2022-08-09T08:34:34.406Z,3.75
2022-08-09T08:37:01.926Z,4.00
2022-08-09T08:39:28.698Z,3.70
2022-08-09T08:41:58.943Z,3.50
2022-08-09T08:44:29.154Z,6.32
2022-08-09T08:47:02.276Z,3.70
2022-08-09T08:49:38.941Z,4.75
2022-08-09T08:52:52.707Z,4.10
2022-08-09T08:55:05.698Z,3.85
2022-08-09T08:57:35.113Z,6.28
2022-08-09T09:00:08.197Z,3.95
2022-08-09T09:02:44.549Z,2.47
2022-08-09T09:05:32.956Z,26.50
2022-08-09T09:08:30.347Z,2.92
2022-08-09T09:11:01.198Z,2.97
2022-08-09T09:13:41.696Z,4.63
2022-08-09T09:16:15.164Z,2.30
2022-08-09T09:18:48.024Z,2.50
2022-08-09T09:21:14.780Z,2.83
2022-08-09T09:23:50.010Z,4.80
2022-08-09T09:26:26.095Z,2.92
2022-08-09T09:29:04.346Z,3.40
2022-08-09T09:32:04.505Z,3.25
2022-08-09T09:34:29.056Z,3.90
2022-08-09T09:36:57.248Z,3.45
2022-08-09T09:39:50.213Z,2.60
2022-08-09T09:42:27.777Z,3.47
2022-08-09T09:45:03.085Z,5.32
2022-08-09T09:47:30.470Z,2.95
2022-08-09T09:50:14.614Z,3.25
2022-08-09T09:52:54.709Z,2.38
2022-08-09T09:55:28.307Z,2.55
2022-08-09T09:58:17.140Z,2.55
2022-08-09T10:00:54.441Z,2.58
2022-08-09T10:03:57.353Z,2.67
2022-08-09T10:06:32.187Z,3.05
2022-08-09T10:09:11.888Z,2.30
2022-08-09T10:12:11.342Z,2.30
2022-08-09T10:14:47.894Z,2.45
2022-08-09T10:17:39.792Z,2.85
2022-08-09T10:20:27.171Z,2.88
2022-08-09T10:23:13.922Z,1.63
2022-08-09T10:26:07.337Z,3.97
2022-08-09T10:28:34.425Z,2.83
2022-08-09T10:34:10.847Z,1.95
2022-08-09T10:36:37.192Z,2.85
2022-08-09T10:39:15.790Z,2.00
2022-08-09T10:41:44.796Z,2.53
2022-08-09T10:44:11.480Z,5.10
2022-08-09T10:47:03.946Z,2.47
2022-08-09T10:49:58.932Z,2.35
2022-08-09T10:52:37.429Z,2.75
2022-08-09T10:55:27.808Z,1.88
2022-08-09T10:58:00.086Z,3.40
2022-08-09T11:01:10.662Z,2.58
2022-08-09T11:03:51.227Z,2.38
2022-08-09T11:06:24.591Z,1.88
2022-08-09T11:08:54.056Z,5.80
2022-08-09T11:11:21.873Z,2.50
2022-08-09T11:14:28.157Z,3.00
2022-08-09T11:16:56.493Z,2.13
2022-08-09T11:20:12.822Z,3.70
2022-08-09T11:22:55.628Z,2.42
2022-08-09T11:25:44.742Z,5.32
2022-08-09T11:28:56.265Z,2.13
2022-08-09T11:31:52.700Z,3.72
2022-08-09T11:34:42.213Z,2.22
2022-08-09T11:37:43.114Z,3.58
2022-08-09T11:40:29.828Z,1.60
2022-08-09T11:42:59.003Z,1.75
2022-08-09T11:45:37.769Z,3.55
2022-08-09T11:48:19.350Z,3.17
2022-08-09T11:52:49.124Z,2.78
2022-08-09T11:53:57.851Z,2.08
2022-08-09T11:56:42.712Z,1.30
2022-08-09T11:59:30.160Z,3.38
2022-08-09T12:02:00.535Z,1.92
2022-08-09T12:04:28.761Z,1.88
2022-08-09T12:07:07.663Z,2.33
2022-08-09T12:09:36.107Z,1.92
2022-08-09T12:12:13.166Z,1.50
2022-08-09T12:15:04.213Z,1.98
2022-08-09T12:17:43.655Z,1.80
2022-08-09T12:20:21.802Z,1.83
2022-08-09T12:23:02.945Z,1.85
2022-08-09T12:25:37.484Z,1.95
2022-08-09T12:29:13.735Z,2.88
2022-08-09T12:30:58.619Z,2.47
2022-08-09T12:33:35.306Z,2.72
2022-08-09T12:36:27.461Z,1.30
2022-08-09T12:38:58.234Z,2.05
2022-08-09T12:41:38.987Z,1.80
2022-08-09T12:44:10.306Z,1.70
2022-08-09T12:46:49.208Z,3.25
2022-08-09T12:49:17.840Z,3.78
2022-08-09T12:52:00.767Z,1.33
2022-08-09T12:54:29.105Z,1.50
2022-08-09T12:56:58.620Z,2.67
2022-08-09T12:59:40.032Z,1.77
2022-08-09T13:02:12.122Z,1.98
2022-08-09T13:04:41.740Z,3.03
2022-08-09T13:07:19.445Z,4.60
2022-08-09T13:10:02.649Z,2.28
2022-08-09T13:12:29.637Z,1.38
2022-08-09T13:15:07.688Z,1.40
2022-08-09T13:18:03.178Z,1.85
2022-08-09T13:20:37.812Z,2.78
2022-08-09T13:24:44.856Z,1.92
2022-08-09T13:26:49.955Z,1.88
2022-08-09T13:29:41.946Z,1.20
2022-08-09T13:32:19.598Z,1.50
2022-08-09T13:34:52.276Z,3.85
2022-08-09T13:37:50.736Z,3.05
2022-08-09T13:41:56.657Z,1.13
2022-08-09T13:42:54.375Z,1.17
2022-08-09T13:45:21.247Z,2.15
2022-08-09T13:47:49.168Z,1.50
2022-08-09T13:50:30.012Z,2.75
2022-08-09T13:52:57.032Z,3.05
2022-08-09T13:55:23.603Z,2.53
2022-08-09T13:57:56.236Z,2.30
2022-08-09T14:00:27.285Z,1.75
2022-08-09T14:03:16.852Z,1.75
2022-08-09T14:06:00.247Z,2.08
2022-08-09T14:08:30.226Z,2.05
2022-08-09T14:10:57.354Z,4.13
2022-08-09T14:14:15.011Z,1.40
2022-08-09T14:16:15.300Z,1.77
2022-08-09T14:18:46.012Z,2.50
2022-08-09T14:21:18.501Z,2.20
2022-08-09T14:23:54.156Z,1.77
2022-08-09T14:26:25.467Z,4.70
2022-08-09T14:28:57.658Z,1.13
2022-08-09T14:31:35.738Z,1.92
2022-08-09T14:34:12.161Z,2.97
2022-08-09T14:36:42.874Z,1.98
2022-08-09T14:39:10.359Z,1.50
2022-08-09T14:41:41.527Z,2.72
2022-08-09T14:44:11.292Z,4.28
2022-08-09T14:47:04.902Z,2.95
2022-08-09T14:49:26.933Z,1.45
2022-08-09T14:51:58.820Z,1.77
2022-08-09T14:54:28.361Z,1.45
2022-08-09T14:56:58.611Z,2.28
2022-08-09T14:59:27.221Z,3.00
2022-08-09T15:01:54.946Z,1.67
2022-08-09T15:04:23.581Z,2.65
2022-08-09T15:06:51.334Z,4.00
2022-08-09T15:09:52.045Z,1.75
2022-08-09T15:12:07.731Z,1.52
2022-08-09T15:14:34.571Z,1.90
2022-08-09T15:17:08.930Z,2.95
2022-08-09T15:19:59.888Z,3.47
2022-08-09T15:22:26.213Z,2.17
2022-08-09T15:24:53.478Z,2.80
2022-08-09T15:27:20.777Z,2.88
2022-08-09T15:30:58.947Z,1.23
2022-08-09T15:32:34.005Z,2.92
2022-08-09T15:35:01.666Z,2.55
2022-08-09T15:37:37.372Z,2.78
2022-08-09T15:40:25.238Z,1.50
2022-08-09T15:42:58.990Z,2.08
2022-08-09T15:45:29.372Z,2.08
2022-08-09T15:48:05.409Z,2.08
2022-08-09T15:50:34.766Z,1.98
2022-08-09T15:53:17.833Z,1.75
2022-08-09T15:55:59.037Z,1.88
2022-08-09T15:58:39.640Z,2.45
2022-08-09T16:01:06.362Z,2.13
2022-08-09T16:03:38.174Z,1.50
2022-08-09T16:06:16.134Z,1.92
2022-08-09T16:08:56.758Z,2.00
2022-08-09T16:11:28.862Z,2.28
2022-08-09T16:14:04.017Z,1.20
2022-08-09T16:16:37.834Z,2.28
2022-08-09T16:19:09.598Z,2.90
2022-08-09T16:21:37.946Z,1.60
2022-08-09T16:24:29.811Z,2.10
2022-08-09T16:26:56.807Z,1.60
2022-08-09T16:29:37.022Z,2.38
2022-08-09T16:32:18.511Z,2.55
2022-08-09T16:34:56.717Z,1.73
2022-08-09T16:37:53.612Z,4.05
2022-08-09T16:40:13.890Z,1.65
2022-08-09T16:42:48.015Z,3.85
2022-08-09T16:45:20.061Z,1.80
2022-08-09T16:48:39.805Z,2.47
2022-08-09T16:50:38.976Z,1.30
2022-08-09T16:53:05.982Z,6.88
2022-08-09T16:56:00.381Z,3.20
2022-08-09T16:58:19.543Z,1.98
2022-08-09T17:00:48.519Z,4.25
2022-08-09T17:03:22.633Z,2.38
2022-08-09T17:06:08.263Z,2.53
2022-08-09T17:09:02.871Z,2.78
2022-08-09T17:11:40.907Z,2.63
2022-08-09T17:14:25.511Z,1.98
2022-08-09T17:16:59.509Z,1.77
2022-08-09T17:20:05.123Z,2.75
2022-08-09T17:22:24.779Z,2.85
2022-08-09T17:25:03.754Z,3.28
2022-08-09T17:27:38.172Z,2.55
2022-08-09T17:30:07.204Z,1.70
2022-08-09T17:32:46.342Z,1.60
2022-08-09T17:35:14.148Z,2.22
2022-08-09T17:38:12.642Z,4.72
2022-08-09T17:40:30.100Z,3.58
2022-08-09T17:42:59.602Z,2.88
2022-08-09T17:46:01.885Z,2.17
2022-08-09T17:48:17.329Z,2.63
2022-08-09T17:50:55.877Z,3.47
2022-08-09T17:53:22.877Z,2.70
2022-08-09T17:55:54.227Z,2.85
2022-08-09T17:58:26.726Z,3.90
2022-08-09T18:00:58.595Z,2.40
2022-08-09T18:03:26.085Z,3.50
2022-08-09T18:05:56.805Z,2.70
2022-08-09T18:08:27.697Z,2.30
2022-08-09T18:11:01.075Z,3.65
2022-08-09T18:13:43.408Z,3.22
2022-08-09T18:16:16.596Z,2.00
2022-08-09T18:18:49.391Z,2.55
2022-08-09T18:21:21.489Z,2.47
2022-08-09T18:24:10.446Z,2.88
2022-08-09T18:26:38.221Z,2.47
2022-08-09T18:30:35.828Z,3.47
2022-08-09T18:32:00.844Z,1.98
2022-08-09T18:34:35.731Z,3.10
2022-08-09T18:37:48.417Z,1.90
2022-08-09T18:40:02.763Z,2.40
2022-08-09T18:42:30.382Z,4.80
2022-08-09T18:45:01.149Z,1.52
2022-08-09T18:47:37.289Z,2.17
2022-08-09T18:50:05.905Z,1.67
2022-08-09T18:52:36.535Z,4.10
2022-08-09T18:55:04.984Z,3.38
2022-08-09T18:57:42.604Z,1.55
2022-08-09T19:00:11.789Z,3.33
2022-08-09T19:02:45.830Z,3.15
2022-08-09T19:05:20.736Z,2.70
2022-08-09T19:08:10.800Z,3.00
2022-08-09T19:10:45.563Z,2.33
2022-08-09T19:13:20.388Z,2.95
2022-08-09T19:15:51.834Z,3.75
2022-08-09T19:18:34.292Z,4.13
2022-08-09T19:21:10.463Z,2.63
2022-08-09T19:24:31.916Z,2.90
2022-08-09T19:26:31.052Z,1.80
2022-08-09T19:29:01.658Z,3.20
2022-08-09T19:31:30.511Z,3.83
2022-08-09T19:34:18.283Z,3.00
2022-08-09T19:36:51.113Z,2.92
2022-08-09T19:39:17.783Z,2.58
2022-08-09T19:44:15.291Z,4.10
2022-08-09T19:46:50.711Z,5.13
2022-08-09T19:50:08.795Z,3.65
2022-08-09T19:52:08.509Z,2.83
2022-08-09T19:54:35.183Z,1.73
2022-08-09T19:57:02.120Z,3.47
2022-08-09T19:59:57.247Z,3.00
2022-08-09T20:04:11.400Z,3.85
2022-08-09T20:05:11.566Z,2.92
2022-08-09T20:07:58.785Z,4.15
2022-08-09T20:10:34.613Z,3.60
2022-08-09T20:13:03.189Z,2.13
2022-08-09T20:16:32.858Z,2.38
2022-08-09T20:18:18.823Z,1.70
2022-08-09T20:23:13.199Z,2.97
2022-08-09T20:25:51.889Z,2.97
2022-08-09T20:28:34.469Z,3.42
2022-08-09T20:31:11.048Z,2.63
2022-08-09T20:33:44.099Z,2.65
2022-08-09T20:36:11.911Z,5.07
2022-08-09T20:39:07.133Z,2.67
2022-08-09T20:41:32.296Z,3.55
2022-08-09T20:44:02.958Z,2.65
2022-08-09T20:46:33.963Z,3.40
2022-08-09T20:49:10.349Z,3.42
2022-08-09T20:51:41.139Z,4.38
2022-08-09T20:54:12.613Z,3.17
2022-08-09T20:56:44.063Z,2.38
2022-08-09T20:59:16.793Z,3.80
2022-08-09T21:01:50.243Z,2.72
2022-08-09T21:05:53.562Z,3.28
2022-08-09T21:07:11.853Z,3.95
2022-08-09T21:09:56.311Z,1.85
2022-08-09T21:15:13.665Z,3.70
2022-08-09T21:18:23.475Z,3.45
2022-08-09T21:20:30.307Z,3.13
2022-08-09T21:22:58.056Z,4.57
2022-08-09T21:25:55.706Z,2.63
2022-08-09T21:28:35.434Z,3.05
2022-08-09T21:31:16.110Z,3.38
2022-08-09T21:33:52.069Z,3.10
2022-08-09T21:36:28.510Z,3.90
2022-08-09T21:38:59.335Z,2.92
2022-08-09T21:42:05.883Z,2.28
2022-08-09T21:44:34.601Z,4.63
2022-08-09T21:47:09.180Z,3.22
2022-08-09T21:49:39.858Z,3.35
2022-08-09T21:52:14.704Z,4.95
2022-08-09T21:54:50.830Z,1.90
2022-08-09T21:57:38.413Z,2.20
2022-08-09T22:00:25.491Z,2.55
2022-08-09T22:02:59.125Z,2.42
2022-08-09T22:05:35.478Z,2.70
2022-08-09T22:08:04.772Z,2.25
2022-08-09T22:10:31.679Z,5.55
2022-08-09T22:12:59.848Z,3.15
2022-08-09T22:15:35.002Z,2.53
2022-08-09T22:18:02.091Z,1.90
2022-08-09T22:20:31.442Z,2.85
2022-08-09T22:22:58.914Z,2.13
2022-08-09T22:26:06.058Z,2.13
2022-08-09T22:28:12.603Z,2.90
2022-08-09T22:30:39.173Z,2.78
2022-08-09T22:33:17.387Z,1.70
2022-08-09T22:36:01.188Z,2.10
2022-08-09T22:38:30.076Z,2.00
2022-08-09T22:40:58.515Z,4.00
2022-08-09T22:44:02.362Z,3.28
2022-08-09T22:48:16.513Z,4.30
2022-08-09T22:49:01.843Z,2.58
2022-08-09T22:51:38.096Z,2.38
2022-08-09T22:54:08.282Z,2.22
2022-08-09T22:56:41.450Z,2.75
2022-08-09T22:59:57.458Z,2.53
2022-08-09T23:01:56.074Z,2.83
2022-08-09T23:04:25.423Z,1.98
2022-08-09T23:07:13.968Z,2.17
2022-08-09T23:09:42.865Z,2.83
2022-08-09T23:12:09.400Z,3.15
2022-08-09T23:14:41.363Z,2.70
2022-08-09T23:17:10.801Z,5.05
2022-08-09T23:20:02.488Z,2.60
2022-08-09T23:22:24.056Z,1.95
2022-08-09T23:24:50.639Z,2.70
2022-08-09T23:27:17.436Z,4.35
2022-08-09T23:29:43.951Z,2.45
2022-08-09T23:32:10.687Z,1.80
2022-08-09T23:34:37.661Z,2.20
2022-08-09T23:37:05.038Z,3.25
2022-08-09T23:39:32.478Z,2.13
2022-08-09T23:41:59.282Z,2.10
2022-08-09T23:44:25.823Z,3.28
2022-08-09T23:46:57.147Z,2.50
2022-08-09T23:49:25.158Z,1.98
2022-08-09T23:51:52.367Z,2.65
2022-08-09T23:54:19.874Z,3.88
2022-08-09T23:56:54.105Z,2.38
2022-08-09T23:59:23.089Z,2.10
